Time;durP1;ratioP1;P1;durP2;ratioP2;P2;SDS_P1;SDS_P2;PMS_P1;PMS_P2;Temp;Humidity;BMP_temperature;BMP_pressure;BME280_temperature;BME280_humidity;BME280_pressure;Samples;Min_cycle;Max_cycle;Signal;HPM_P1;HPM_P2
2022/06/25 00:01:30;;;;;;;40.33;31.60;;;;;;;20.46;66.43;100275.13;7397871;19;20026;-69
2022/06/25 00:03:59;;;;;;;39.28;30.73;;;;;;;20.44;66.87;100273.53;7397965;19;20488;-69
2022/06/25 00:06:30;;;;;;;39.30;29.92;;;;;;;20.41;66.62;100263.09;7399992;19;20032;-69
2022/06/25 00:08:58;;;;;;;43.08;32.10;;;;;;;20.41;66.94;100263.09;7396720;19;20035;-69
2022/06/25 00:14:09;;;;;;;34.78;29.27;;;;;;;20.39;67.42;100265.03;7398234;19;20381;-68
2022/06/25 00:16:38;;;;;;;37.22;28.73;;;;;;;20.37;67.39;100262.44;7397896;19;20014;-68
2022/06/25 00:19:07;;;;;;;38.50;30.05;;;;;;;20.35;67.34;100253.72;7399403;19;20018;-68
2022/06/25 00:21:38;;;;;;;37.03;29.25;;;;;;;20.35;67.51;100259.06;7399675;19;20015;-68
2022/06/25 00:24:07;;;;;;;40.00;29.20;;;;;;;20.33;67.48;100256.50;7398133;19;20024;-68
2022/06/25 00:26:36;;;;;;;36.70;29.73;;;;;;;20.31;67.78;100253.09;7399130;19;20023;-68
2022/06/25 00:29:05;;;;;;;39.55;30.42;;;;;;;20.31;67.78;100255.75;7399450;19;20018;-68
2022/06/25 00:31:33;;;;;;;36.58;28.40;;;;;;;20.28;67.68;100249.78;7399465;19;20011;-68
2022/06/25 00:34:01;;;;;;;36.28;28.65;;;;;;;20.26;68.43;100259.72;7397314;19;20489;-67
2022/06/25 00:36:30;;;;;;;38.38;30.27;;;;;;;20.23;68.56;100255.41;7398895;19;20031;-68
2022/06/25 00:39:01;;;;;;;38.17;29.60;;;;;;;20.21;68.58;100259.16;7398617;19;20022;-69
2022/06/25 00:41:31;;;;;;;35.88;29.52;;;;;;;20.18;68.69;100265.56;7398645;19;20383;-67
2022/06/25 00:43:59;;;;;;;39.00;30.67;;;;;;;20.17;68.92;100269.19;7397513;19;20427;-67
2022/06/25 00:46:28;;;;;;;36.65;29.65;;;;;;;20.17;68.56;100274.53;7398490;19;20436;-67
2022/06/25 00:48:56;;;;;;;39.33;30.67;;;;;;;20.14;68.78;100277.38;7398870;19;20425;-67
2022/06/25 00:51:25;;;;;;;36.75;29.27;;;;;;;20.12;68.90;100268.63;7398304;19;20384;-68
2022/06/25 00:53:56;;;;;;;34.60;28.90;;;;;;;20.08;68.99;100261.81;7397232;19;20023;-68
2022/06/25 00:56:30;;;;;;;32.05;27.98;;;;;;;20.06;69.16;100253.94;7398749;19;20018;-68
2022/06/25 00:59:04;;;;;;;38.72;28.45;;;;;;;20.05;69.25;100262.06;7401210;19;20015;-68
2022/06/25 01:01:36;;;;;;;37.35;30.20;;;;;;;20.01;69.62;100256.91;7396970;19;20006;-67
2022/06/25 01:04:04;;;;;;;39.08;30.10;;;;;;;20.00;69.46;100257.91;7396567;19;20462;-68
2022/06/25 01:06:33;;;;;;;43.10;31.63;;;;;;;19.98;69.96;100259.81;7397895;19;20427;-68
2022/06/25 01:09:02;;;;;;;36.67;31.60;;;;;;;19.95;69.89;100257.34;7397774;19;20018;-67
2022/06/25 01:11:33;;;;;;;39.58;32.00;;;;;;;19.92;70.23;100254.91;7397598;19;20508;-68
2022/06/25 01:14:01;;;;;;;41.50;31.35;;;;;;;19.89;70.21;100249.81;7396234;19;20022;-68
2022/06/25 01:16:30;;;;;;;36.58;31.60;;;;;;;19.86;70.08;100250.00;7395443;19;20435;-68
2022/06/25 01:18:58;;;;;;;39.35;32.10;;;;;;;19.83;70.48;100247.56;7397899;19;20086;-70
2022/06/25 01:21:26;;;;;;;41.67;33.30;;;;;;;19.82;70.82;100251.16;7395830;19;20022;-68
2022/06/25 01:23:58;;;;;;;40.80;32.63;;;;;;;19.82;70.32;100261.78;7396509;19;20039;-68
2022/06/25 01:26:26;;;;;;;37.20;31.83;;;;;;;19.79;70.45;100264.66;7397304;19;20014;-68
2022/06/25 01:28:55;;;;;;;37.08;31.35;;;;;;;19.76;71.06;100257.72;7394373;19;20015;-68
2022/06/25 01:31:23;;;;;;;39.78;31.08;;;;;;;19.74;70.87;100262.31;7396959;19;20010;-68
2022/06/25 01:33:52;;;;;;;36.20;29.17;;;;;;;19.72;71.09;100266.03;7395427;19;20014;-68
2022/06/25 01:36:20;;;;;;;36.10;29.98;;;;;;;19.68;71.46;100263.56;7395007;19;20023;-68
2022/06/25 01:38:49;;;;;;;34.00;29.05;;;;;;;19.64;71.24;100269.22;7397189;19;20025;-68
2022/06/25 01:41:20;;;;;;;33.80;27.63;;;;;;;19.59;71.83;100264.19;7396605;19;20022;-68
2022/06/25 01:43:49;;;;;;;35.80;29.52;;;;;;;19.54;71.59;100268.97;7396206;19;20022;-68
2022/06/25 01:46:18;;;;;;;32.65;27.80;;;;;;;19.51;72.08;100263.84;7394744;19;20041;-68
2022/06/25 01:48:47;;;;;;;34.25;28.58;;;;;;;19.45;71.86;100266.91;7394785;19;20477;-71
2022/06/25 01:51:17;;;;;;;33.65;29.15;;;;;;;19.40;72.16;100263.72;7396198;19;20070;-67
2022/06/25 01:53:46;;;;;;;35.42;28.70;;;;;;;19.36;72.04;100271.03;7395972;19;20024;-66
2022/06/25 01:56:15;;;;;;;32.97;29.25;;;;;;;19.28;72.45;100260.06;7394712;19;20422;-66
2022/06/25 01:58:46;;;;;;;32.80;28.73;;;;;;;19.20;72.50;100264.06;7396149;19;20488;-66
2022/06/25 02:01:14;;;;;;;31.13;27.35;;;;;;;19.15;72.72;100260.03;7395178;19;20014;-67
2022/06/25 02:03:43;;;;;;;31.42;27.80;;;;;;;19.07;72.83;100260.53;7395401;19;20031;-67
2022/06/25 02:06:11;;;;;;;33.28;28.30;;;;;;;19.00;73.00;100270.69;7394589;19;20022;-66
2022/06/25 02:08:41;;;;;;;32.55;26.98;;;;;;;18.96;73.01;100274.50;7395822;19;20027;-67
2022/06/25 02:11:10;;;;;;;31.75;26.70;;;;;;;18.92;73.15;100275.66;7395726;19;20086;-67
2022/06/25 02:13:39;;;;;;;35.65;28.83;;;;;;;18.88;73.09;100280.28;7395109;19;20430;-67
2022/06/25 02:16:11;;;;;;;36.38;29.27;;;;;;;18.84;73.13;100283.22;7393704;19;20094;-66
2022/06/25 02:18:39;;;;;;;37.25;28.73;;;;;;;18.81;73.67;100278.13;7395488;19;20018;-67
2022/06/25 02:21:08;;;;;;;33.33;27.83;;;;;;;18.76;73.75;100272.25;7395591;19;20021;-67
2022/06/25 02:23:36;;;;;;;33.70;28.13;;;;;;;18.72;73.67;100266.28;7394880;19;20077;-67
2022/06/25 02:26:05;;;;;;;31.58;27.27;;;;;;;18.67;73.80;100269.22;7395596;19;20028;-66
2022/06/25 02:28:33;;;;;;;31.73;27.65;;;;;;;18.62;74.05;100259.84;7395636;19;20022;-67
2022/06/25 02:31:02;;;;;;;35.88;28.65;;;;;;;18.56;74.65;100263.72;7396071;19;20014;-67
2022/06/25 02:33:33;;;;;;;31.13;27.83;;;;;;;18.52;74.59;100268.38;7394701;19;20023;-67
2022/06/25 02:36:01;;;;;;;33.15;27.88;;;;;;;18.51;74.90;100284.41;7394469;19;20022;-67
2022/06/25 02:38:30;;;;;;;32.65;28.20;;;;;;;18.51;75.23;100289.72;7395229;19;20022;-67
2022/06/25 02:40:59;;;;;;;33.65;29.13;;;;;;;18.50;75.41;100293.31;7390800;19;20018;-67
2022/06/25 02:43:27;;;;;;;38.10;27.85;;;;;;;18.51;75.31;100287.06;7394442;19;20032;-67
2022/06/25 02:45:56;;;;;;;33.17;27.88;;;;;;;18.51;75.37;100295.91;7395183;19;20022;-67
2022/06/25 02:48:24;;;;;;;34.97;28.40;;;;;;;18.53;75.51;100298.47;7394748;19;20568;-67
2022/06/25 02:50:55;;;;;;;33.60;28.70;;;;;;;18.53;75.29;100303.78;7392792;19;20462;-67
2022/06/25 02:53:24;;;;;;;29.33;26.00;;;;;;;18.52;75.70;100308.22;7394622;19;20023;-67
2022/06/25 03:01:14;;;;;;;33.70;27.80;;;;;;;18.49;75.88;100324.34;7390515;19;20073;-67
2022/06/25 03:03:42;;;;;;;32.47;28.55;;;;;;;18.46;75.88;100329.84;7393716;19;20022;-67
2022/06/25 03:06:13;;;;;;;35.22;28.98;;;;;;;18.43;76.02;100315.94;7394201;19;20477;-67
2022/06/25 03:08:42;;;;;;;35.05;27.23;;;;;;;18.41;76.35;100321.31;7394812;19;20019;-67
2022/06/25 03:11:11;;;;;;;30.17;26.88;;;;;;;18.42;76.26;100330.16;7392251;19;20488;-67
2022/06/25 03:13:39;;;;;;;31.25;27.65;;;;;;;18.40;76.45;100336.41;7392303;19;20022;-67
2022/06/25 03:16:09;;;;;;;31.38;27.27;;;;;;;18.42;76.66;100331.00;7392784;19;20014;-67
2022/06/25 03:18:39;;;;;;;31.25;26.77;;;;;;;18.44;76.56;100339.72;7392034;19;20487;-68
2022/06/25 03:21:08;;;;;;;30.00;26.63;;;;;;;18.43;76.65;100337.19;7394224;19;20011;-67
2022/06/25 03:23:39;;;;;;;30.92;26.90;;;;;;;18.44;77.02;100352.13;7393181;19;20019;-67
2022/06/25 03:26:07;;;;;;;27.52;24.50;;;;;;;18.42;77.28;100343.44;7392534;19;20090;-67
2022/06/25 03:28:36;;;;;;;29.17;26.10;;;;;;;18.39;77.17;100345.31;7394115;19;20014;-67
2022/06/25 03:31:05;;;;;;;33.05;26.52;;;;;;;18.37;77.10;100352.53;7391637;19;20032;-67
2022/06/25 03:33:33;;;;;;;28.15;24.63;;;;;;;18.38;77.41;100350.72;7391694;19;20021;-67
2022/06/25 03:36:02;;;;;;;27.55;24.73;;;;;;;18.36;77.22;100356.13;7391466;19;20021;-67
2022/06/25 03:38:31;;;;;;;29.02;25.75;;;;;;;18.35;77.49;100353.53;7391423;19;20036;-67
2022/06/25 03:44:01;;;;;;;29.67;25.33;;;;;;;18.35;77.82;100359.72;7388926;19;20018;-67
2022/06/25 03:46:30;;;;;;;29.13;26.15;;;;;;;18.36;77.91;100360.56;7393165;19;20015;-66
2022/06/25 03:48:59;;;;;;;28.17;25.02;;;;;;;18.37;78.03;100363.16;7391014;19;20011;-67
2022/06/25 03:51:33;;;;;;;30.00;26.77;;;;;;;18.39;77.61;100363.91;7393464;19;20022;-67
2022/06/25 03:54:03;;;;;;;28.20;25.15;;;;;;;18.41;77.97;100377.06;7399254;19;20104;-68
2022/06/25 03:56:34;;;;;;;29.83;26.15;;;;;;;18.45;77.59;100383.06;7398478;19;20017;-68
2022/06/25 03:59:03;;;;;;;28.58;25.65;;;;;;;18.48;77.83;100388.22;7397704;19;20519;-67
2022/06/25 04:01:31;;;;;;;28.40;25.45;;;;;;;18.51;78.16;100385.34;7397392;19;20022;-67
2022/06/25 04:03:59;;;;;;;27.45;24.65;;;;;;;18.53;78.07;100384.31;7398729;19;20070;-67
2022/06/25 04:06:28;;;;;;;28.52;25.15;;;;;;;18.58;78.08;100391.13;7397824;19;20011;-68
2022/06/25 04:08:57;;;;;;;28.42;25.48;;;;;;;18.62;77.59;100393.53;7401737;19;20077;-67
2022/06/25 04:11:25;;;;;;;34.35;28.60;;;;;;;18.65;77.36;100398.66;7400138;19;20018;-67
2022/06/25 04:13:56;;;;;;;30.70;27.25;;;;;;;18.69;77.26;100402.84;7397451;19;20031;-67
2022/06/25 04:16:25;;;;;;;34.47;28.95;;;;;;;18.71;77.41;100400.91;7397068;19;20014;-67
2022/06/25 04:18:54;;;;;;;41.28;34.40;;;;;;;18.75;76.86;100404.25;7399845;19;20028;-68
2022/06/25 04:21:22;;;;;;;33.25;29.67;;;;;;;18.80;76.69;100406.63;7399065;19;20015;-67
2022/06/25 04:23:51;;;;;;;36.38;30.90;;;;;;;18.84;76.46;100406.34;7397984;19;20101;-67
2022/06/25 04:26:19;;;;;;;33.75;30.23;;;;;;;18.87;76.23;100413.28;7399591;19;20019;-67
2022/06/25 04:31:32;;;;;;;36.40;30.65;;;;;;;18.97;76.01;100419.78;7399564;19;20085;-67
2022/06/25 04:34:01;;;;;;;36.17;30.80;;;;;;;19.01;75.95;100423.09;7396807;19;20018;-67
2022/06/25 04:36:30;;;;;;;33.67;29.90;;;;;;;19.05;75.78;100420.13;7397219;19;20499;-67
2022/06/25 04:38:58;;;;;;;33.70;30.17;;;;;;;19.09;75.70;100422.59;7398852;19;20019;-68
2022/06/25 04:41:27;;;;;;;34.65;30.17;;;;;;;19.14;75.64;100431.16;7396782;19;20027;-67
2022/06/25 04:43:56;;;;;;;36.25;31.85;;;;;;;19.17;75.67;100434.47;7396558;19;20023;-66
2022/06/25 04:46:24;;;;;;;41.45;33.55;;;;;;;19.21;75.73;100433.31;7398552;19;20509;-67
2022/06/25 04:48:55;;;;;;;43.25;38.35;;;;;;;19.26;75.32;100430.38;7398782;19;20021;-67
2022/06/25 04:51:24;;;;;;;47.00;39.03;;;;;;;19.32;75.45;100430.00;7399101;19;20035;-69
2022/06/25 04:53:58;;;;;;;29.83;26.73;;;;;;;19.39;75.78;100429.59;7396980;19;20018;-69
2022/06/25 04:56:27;;;;;;;31.10;27.60;;;;;;;19.46;75.50;100433.56;7398441;19;20018;-70
2022/06/25 04:58:57;;;;;;;31.58;27.30;;;;;;;19.51;75.48;100435.00;7398616;19;20022;-69
2022/06/25 05:01:26;;;;;;;30.35;27.20;;;;;;;19.59;75.39;100433.63;7397588;19;20015;-69
2022/06/25 05:03:57;;;;;;;29.35;26.35;;;;;;;19.65;75.23;100434.09;7395821;19;20023;-69
2022/06/25 05:06:26;;;;;;;29.02;25.77;;;;;;;19.72;74.89;100436.38;7397915;19;20014;-69
2022/06/25 05:08:54;;;;;;;29.60;26.45;;;;;;;19.78;75.02;100434.16;7398214;19;20023;-68
2022/06/25 05:11:23;;;;;;;28.30;25.27;;;;;;;19.84;74.38;100435.56;7397839;19;20037;-69
2022/06/25 05:13:52;;;;;;;29.00;25.90;;;;;;;19.90;74.27;100440.50;7396811;19;20019;-69
2022/06/25 05:16:20;;;;;;;26.80;24.13;;;;;;;19.96;74.31;100440.09;7396797;19;20029;-68
2022/06/25 05:19:13;;;;;;;26.45;22.15;;;;;;;20.04;74.23;100449.38;7397231;19;20007;-68
2022/06/25 05:21:42;;;;;;;50.58;41.67;;;;;;;20.08;73.73;100441.09;7396170;19;20031;-68
2022/06/25 05:24:10;;;;;;;37.80;31.08;;;;;;;20.15;73.73;100444.22;7395726;19;20019;-68
2022/06/25 05:26:39;;;;;;;27.75;23.98;;;;;;;20.22;73.73;100450.84;7397522;19;20022;-68
2022/06/25 05:29:07;;;;;;;24.30;21.90;;;;;;;20.28;73.32;100458.41;7397360;19;20028;-68
2022/06/25 05:31:36;;;;;;;25.35;22.73;;;;;;;20.34;73.49;100454.47;7395407;19;20035;-68
2022/06/25 05:34:05;;;;;;;25.75;22.65;;;;;;;20.40;73.19;100450.56;7395641;19;20019;-68
2022/06/25 05:36:36;;;;;;;23.83;21.48;;;;;;;20.47;72.70;100465.16;7395844;19;20078;-68
2022/06/25 05:39:04;;;;;;;24.20;21.35;;;;;;;20.51;72.51;100466.66;7396482;19;20021;-68
2022/06/25 05:41:32;;;;;;;24.27;21.65;;;;;;;20.56;72.35;100471.66;7396524;19;20039;-69
2022/06/25 05:44:01;;;;;;;28.85;25.80;;;;;;;20.60;72.44;100465.16;7395571;19;20015;-69
2022/06/25 05:46:29;;;;;;;26.42;23.65;;;;;;;20.64;72.18;100466.69;7396430;19;20366;-69
2022/06/25 05:48:58;;;;;;;27.10;22.98;;;;;;;20.70;71.96;100470.72;7396478;19;20457;-69
2022/06/25 05:51:26;;;;;;;28.30;25.38;;;;;;;20.74;72.14;100474.91;7394824;19;20015;-69
2022/06/25 05:53:57;;;;;;;28.00;24.58;;;;;;;20.80;71.91;100477.16;7395213;19;20015;-69
2022/06/25 05:56:26;;;;;;;26.98;24.20;;;;;;;20.87;71.81;100475.78;7395418;19;20027;-69
2022/06/25 05:58:55;;;;;;;27.52;24.50;;;;;;;20.93;72.28;100478.03;7396077;19;20023;-69
2022/06/25 06:01:37;;;;;;;26.27;23.52;;;;;;;20.99;71.62;100480.25;7395253;19;20010;-69
2022/06/25 06:04:05;;;;;;;25.65;23.10;;;;;;;21.06;71.54;100482.50;7395780;19;20023;-69
2022/06/25 06:06:34;;;;;;;26.05;23.42;;;;;;;21.12;71.67;100488.25;7396232;19;20015;-69
2022/06/25 06:09:05;;;;;;;25.27;21.50;;;;;;;21.17;71.13;100493.28;7395593;19;20031;-68
2022/06/25 06:11:34;;;;;;;26.80;23.05;;;;;;;21.24;70.81;100491.00;7396306;19;20024;-69
2022/06/25 06:14:02;;;;;;;25.20;22.20;;;;;;;21.31;71.12;100495.81;7393669;19;20040;-69
2022/06/25 06:16:31;;;;;;;24.35;21.65;;;;;;;21.39;70.76;100494.41;7392954;19;20011;-69
2022/06/25 06:18:59;;;;;;;25.33;22.50;;;;;;;21.46;70.15;100496.53;7395623;19;20208;-69
2022/06/25 06:21:28;;;;;;;23.42;21.02;;;;;;;21.54;69.75;100498.66;7395441;19;20018;-69
2022/06/25 06:23:56;;;;;;;24.30;21.90;;;;;;;21.61;70.11;100499.94;7394267;19;20022;-69
2022/06/25 06:26:27;;;;;;;26.17;22.23;;;;;;;21.70;69.49;100505.56;7394804;19;20022;-68
2022/06/25 06:28:56;;;;;;;22.70;20.50;;;;;;;21.78;69.28;100509.38;7395606;19;20021;-68
2022/06/25 06:31:24;;;;;;;22.15;19.88;;;;;;;21.85;68.89;100501.81;7395286;19;20029;-68
2022/06/25 06:33:53;;;;;;;21.75;19.65;;;;;;;21.92;68.70;100502.19;7392731;19;20205;-68
2022/06/25 06:36:21;;;;;;;21.52;19.35;;;;;;;21.97;68.41;100505.38;7393890;19;20371;-68
2022/06/25 06:38:50;;;;;;;25.00;20.50;;;;;;;22.02;68.34;100505.06;7394386;19;20347;-68
2022/06/25 06:41:19;;;;;;;22.40;20.02;;;;;;;22.09;68.08;100503.59;7394582;19;20022;-68
2022/06/25 06:43:50;;;;;;;23.00;20.17;;;;;;;22.16;68.11;100504.03;7393717;19;20019;-69
2022/06/25 06:46:19;;;;;;;22.20;19.88;;;;;;;22.22;67.60;100515.09;7394784;19;20015;-69
2022/06/25 06:48:48;;;;;;;21.55;19.35;;;;;;;22.29;67.42;100513.69;7392782;19;20027;-68
2022/06/25 06:51:16;;;;;;;23.33;20.92;;;;;;;22.35;67.76;100506.16;7394950;19;20078;-68
2022/06/25 06:53:45;;;;;;;22.45;18.85;;;;;;;22.41;67.45;100503.06;7392468;19;20367;-68
2022/06/25 06:56:13;;;;;;;20.10;18.00;;;;;;;22.49;66.65;100507.84;7394121;19;20014;-68
2022/06/25 06:58:42;;;;;;;21.35;17.23;;;;;;;22.52;65.87;100508.47;7394722;19;20078;-68
2022/06/25 07:01:13;;;;;;;18.13;16.30;;;;;;;22.56;65.49;100506.41;7393942;19;20031;-69
2022/06/25 07:03:42;;;;;;;16.60;14.80;;;;;;;22.59;65.00;100500.81;7393390;19;20156;-69
2022/06/25 07:06:10;;;;;;;17.85;16.02;;;;;;;22.60;64.96;100503.38;7394576;19;20020;-68
2022/06/25 07:08:39;;;;;;;19.00;14.88;;;;;;;22.63;64.37;100504.09;7394214;19;20031;-68
2022/06/25 07:11:28;;;;;;;17.95;16.08;;;;;;;22.63;64.28;100506.78;7394456;19;20022;-68
2022/06/25 07:13:57;;;;;;;17.67;15.60;;;;;;;22.66;64.30;100507.41;7392688;19;20398;-68
2022/06/25 07:16:29;;;;;;;18.20;16.08;;;;;;;22.71;64.09;100501.69;7393663;19;20027;-68
2022/06/25 07:18:58;;;;;;;15.45;13.77;;;;;;;22.74;63.77;100504.13;7391951;19;20420;-69
2022/06/25 07:21:27;;;;;;;15.25;13.65;;;;;;;22.77;63.57;100504.75;7391755;19;20027;-68
2022/06/25 07:23:56;;;;;;;15.70;13.95;;;;;;;22.79;63.20;100504.63;7391629;19;20487;-69
2022/06/25 07:26:26;;;;;;;16.15;14.50;;;;;;;22.83;62.96;100507.94;7393212;19;20023;-68
2022/06/25 07:28:55;;;;;;;16.75;14.88;;;;;;;22.85;63.31;100501.47;7400601;19;20025;-68
2022/06/25 07:31:24;;;;;;;16.92;14.57;;;;;;;22.91;63.04;100506.38;7400623;19;20027;-68
2022/06/25 07:33:55;;;;;;;16.35;14.68;;;;;;;22.98;62.97;100501.38;7398922;19;20039;-69
2022/06/25 07:36:24;;;;;;;18.90;15.45;;;;;;;23.08;62.99;100506.88;7400180;19;20561;-69
2022/06/25 07:38:53;;;;;;;16.65;14.95;;;;;;;23.14;62.82;100506.38;7400302;19;20027;-69
2022/06/25 07:41:21;;;;;;;16.17;14.50;;;;;;;23.21;62.57;100506.78;7397912;19;20031;-67
2022/06/25 07:43:50;;;;;;;16.17;14.57;;;;;;;23.26;62.46;100504.59;7399526;19;20428;-68
2022/06/25 07:46:18;;;;;;;16.55;14.98;;;;;;;23.34;62.65;100512.00;7400519;19;20411;-67
2022/06/25 07:48:46;;;;;;;17.75;14.45;;;;;;;23.43;62.45;100514.81;7400187;19;20480;-68
2022/06/25 07:53:58;;;;;;;16.60;13.93;;;;;;;23.58;61.51;100520.75;7398888;19;20346;-68
2022/06/25 07:56:27;;;;;;;15.80;14.23;;;;;;;23.69;61.49;100527.06;7400187;19;20022;-68
2022/06/25 07:58:55;;;;;;;15.80;13.40;;;;;;;23.74;61.50;100514.16;7397852;19;20028;-68
2022/06/25 08:01:24;;;;;;;14.57;13.18;;;;;;;23.81;61.39;100522.53;7397242;19;20019;-68
2022/06/25 08:03:52;;;;;;;14.77;12.45;;;;;;;23.86;60.81;100518.53;7398536;19;20014;-68
2022/06/25 08:06:23;;;;;;;14.07;12.63;;;;;;;23.94;60.86;100522.44;7397711;19;20040;-68
2022/06/25 08:08:52;;;;;;;13.88;12.40;;;;;;;24.02;60.18;100530.69;7399827;19;20484;-68
2022/06/25 08:11:21;;;;;;;14.73;12.73;;;;;;;24.12;60.05;100530.78;7397537;19;20035;-68
2022/06/25 08:13:49;;;;;;;14.23;12.23;;;;;;;24.20;59.84;100531.00;7398374;19;20023;-67
2022/06/25 08:16:18;;;;;;;13.13;11.73;;;;;;;24.31;59.21;100538.16;7396800;19;20344;-67
2022/06/25 08:18:46;;;;;;;12.50;11.20;;;;;;;24.39;58.73;100531.19;7396444;19;20027;-67
2022/06/25 08:21:15;;;;;;;13.23;11.93;;;;;;;24.45;58.52;100543.19;7399635;19;20039;-67
2022/06/25 08:23:46;;;;;;;14.25;12.40;;;;;;;24.50;58.00;100542.81;7396241;19;20377;-67
2022/06/25 08:26:15;;;;;;;14.77;11.90;;;;;;;24.53;58.28;100548.78;7399299;19;20018;-68
2022/06/25 08:28:44;;;;;;;12.38;11.05;;;;;;;24.57;58.04;100546.72;7398950;19;20019;-67
2022/06/25 08:31:13;;;;;;;13.43;12.02;;;;;;;24.61;57.52;100547.31;7398456;19;20031;-67
2022/06/25 08:33:41;;;;;;;17.95;10.73;;;;;;;24.62;57.75;100546.28;7396639;19;20047;-68
2022/06/25 08:36:10;;;;;;;11.98;10.77;;;;;;;24.64;57.52;100549.72;7398692;19;20028;-68
2022/06/25 08:38:38;;;;;;;11.88;10.20;;;;;;;24.70;57.16;100549.22;7394447;19;20023;-68
2022/06/25 08:41:10;;;;;;;10.60;9.32;;;;;;;24.74;57.39;100556.03;7395866;19;20377;-68
2022/06/25 08:43:39;;;;;;;10.77;9.45;;;;;;;24.78;57.53;100552.13;7396966;19;20022;-67
2022/06/25 08:46:08;;;;;;;10.13;8.77;;;;;;;24.84;57.32;100548.88;7399394;19;20037;-68
2022/06/25 08:48:37;;;;;;;10.75;8.95;;;;;;;24.95;57.28;100541.78;7398502;19;20488;-67
2022/06/25 08:51:08;;;;;;;8.65;7.78;;;;;;;25.05;57.09;100543.53;7398736;19;20019;-68
2022/06/25 08:53:37;;;;;;;9.32;8.50;;;;;;;25.14;57.08;100551.78;7397732;19;20015;-68
2022/06/25 08:56:06;;;;;;;8.57;7.68;;;;;;;25.15;57.12;100543.59;7395969;19;20022;-67
2022/06/25 08:58:38;;;;;;;9.43;7.45;;;;;;;25.17;56.75;100549.69;7395999;19;20018;-67
2022/06/25 09:01:07;;;;;;;8.57;7.78;;;;;;;25.18;57.03;100545.97;7398540;19;20018;-67
2022/06/25 09:03:35;;;;;;;8.10;7.28;;;;;;;25.20;57.27;100545.88;7396079;19;20011;-67
2022/06/25 09:06:15;;;;;;;9.52;7.03;;;;;;;25.19;56.58;100549.53;7395063;19;20014;-67
2022/06/25 09:08:44;;;;;;;7.07;6.43;;;;;;;25.21;56.80;100545.75;7394951;19;20014;-66
2022/06/25 09:11:13;;;;;;;8.85;6.90;;;;;;;25.19;56.73;100538.81;7395425;19;20496;-67
2022/06/25 09:13:44;;;;;;;7.88;6.55;;;;;;;25.21;56.38;100544.88;7396239;19;20018;-71
2022/06/25 09:16:26;;;;;;;10.20;6.40;;;;;;;25.21;56.63;100536.81;7396909;19;20544;-70
2022/06/25 09:18:55;;;;;;;7.20;6.50;;;;;;;25.25;57.01;100538.28;7395528;19;20028;-72
2022/06/25 09:21:23;;;;;;;7.70;6.72;;;;;;;25.32;56.99;100538.56;7396975;19;20042;-72
2022/06/25 09:24:00;;;;;;;11.90;6.70;;;;;;;25.30;56.03;100545.91;7395891;19;20010;-71
2022/06/25 09:26:29;;;;;;;7.50;6.40;;;;;;;25.27;56.83;100540.81;7394912;19;20501;-71
2022/06/25 09:29:02;;;;;;;9.27;7.15;;;;;;;25.23;56.66;100542.91;7394913;19;20033;-71
2022/06/25 09:31:38;;;;;;;8.75;6.05;;;;;;;25.26;56.72;100545.31;7395473;19;20015;-71
2022/06/25 09:34:09;;;;;;;6.13;5.18;;;;;;;25.28;56.44;100543.34;7395338;19;20064;-71
2022/06/25 09:36:39;;;;;;;5.80;5.13;;;;;;;25.35;56.54;100540.97;7397442;19;20035;-71
2022/06/25 09:39:07;;;;;;;6.88;5.50;;;;;;;25.43;55.80;100549.25;7394007;19;20021;-71
2022/06/25 09:41:53;;;;;;;8.20;5.40;;;;;;;25.48;55.57;100552.38;7395826;19;20081;-72
2022/06/25 09:44:24;;;;;;;6.50;5.88;;;;;;;25.50;55.78;100545.06;7395130;19;20031;-71
2022/06/25 09:46:57;;;;;;;7.13;5.40;;;;;;;25.60;55.64;100546.91;7396517;19;20509;-72
2022/06/25 09:49:26;;;;;;;7.25;5.40;;;;;;;25.70;55.81;100545.09;7396260;19;20014;-71
2022/06/25 09:52:01;;;;;;;9.55;6.05;;;;;;;25.77;55.34;100548.09;7396219;19;20014;-71
2022/06/25 09:54:30;;;;;;;9.20;6.22;;;;;;;25.77;55.07;100551.63;7395237;19;20015;-72
2022/06/25 09:56:59;;;;;;;6.25;5.65;;;;;;;25.77;55.24;100548.94;7396236;19;20020;-71
2022/06/25 09:59:34;;;;;;;8.65;4.93;;;;;;;25.75;54.84;100550.91;7396353;19;20018;-71
2022/06/25 10:02:06;;;;;;;8.63;5.65;;;;;;;25.80;54.75;100554.03;7395958;19;20006;-71
2022/06/25 10:04:34;;;;;;;6.20;5.13;;;;;;;25.88;54.68;100556.03;7394391;19;20406;-71
2022/06/25 10:07:08;;;;;;;6.32;4.90;;;;;;;25.95;53.77;100559.03;7394477;19;20036;-72
2022/06/25 10:09:41;;;;;;;5.03;4.40;;;;;;;25.99;54.23;100552.41;7394834;19;20022;-72
2022/06/25 10:12:10;;;;;;;;;;;;;;;26.01;53.63;100558.50;7394726;19;20505;-71
2022/06/25 10:14:42;;;;;;;5.60;5.10;;;;;;;26.02;54.10;100555.66;7393950;19;19935;-72
2022/06/25 10:17:12;;;;;;;8.93;5.00;;;;;;;26.09;53.80;100565.88;7395218;19;20031;-70
2022/06/25 10:19:41;;;;;;;6.70;5.03;;;;;;;26.18;53.55;100560.53;7397559;19;20112;-71
2022/06/25 10:22:11;;;;;;;5.93;4.30;;;;;;;26.32;53.32;100553.91;7395487;19;20015;-71
2022/06/25 10:24:41;;;;;;;8.27;5.07;;;;;;;26.46;53.04;100549.06;7393224;19;20014;-71
2022/06/25 10:27:09;;;;;;;8.98;4.72;;;;;;;26.53;52.57;100552.91;7395173;19;20035;-71
2022/06/25 10:29:38;;;;;;;5.60;4.97;;;;;;;26.61;52.24;100549.50;7394891;19;20082;-71
2022/06/25 10:32:20;;;;;;;5.28;4.60;;;;;;;26.68;51.83;100547.94;7396294;19;20027;-72
2022/06/25 10:35:04;;;;;;;5.90;4.88;;;;;;;26.76;51.61;100560.69;7393714;19;20022;-72
2022/06/25 10:38:02;;;;;;;6.72;4.40;;;;;;;26.85;51.63;100551.75;7395177;19;20019;-72
2022/06/25 10:40:30;;;;;;;5.43;4.93;;;;;;;26.96;51.00;100550.75;7394840;19;20015;-71
2022/06/25 10:43:00;;;;;;;5.63;4.90;;;;;;;27.05;50.62;100549.88;7394017;19;20484;-71
2022/06/25 10:45:52;;;;;;;6.65;4.72;;;;;;;27.12;50.35;100555.50;7394971;19;20010;-71
2022/06/25 10:48:27;;;;;;;6.55;5.05;;;;;;;27.18;50.43;100554.94;7395674;19;20015;-72
2022/06/25 10:50:57;;;;;;;6.38;5.78;;;;;;;27.19;50.10;100551.25;7395572;19;20014;-72
2022/06/25 10:53:28;;;;;;;8.43;5.53;;;;;;;27.15;49.55;100549.84;7393841;19;20421;-72
2022/06/25 10:56:19;;;;;;;6.93;5.75;;;;;;;27.13;49.43;100547.31;7393913;19;20010;-71
2022/06/25 10:58:50;;;;;;;6.43;5.72;;;;;;;27.21;49.71;100540.31;7393379;19;20014;-72
2022/06/25 11:01:36;;;;;;;5.53;5.03;;;;;;;27.33;49.51;100544.53;7395244;19;20019;-71
2022/06/25 11:04:14;;;;;;;5.72;4.90;;;;;;;27.50;49.30;100544.78;7401057;19;20021;-70
2022/06/25 11:06:42;;;;;;;5.38;4.60;;;;;;;27.66;48.68;100550.38;7402404;19;20015;-71
2022/06/25 11:09:14;;;;;;;6.57;5.00;;;;;;;27.81;47.98;100539.94;7401737;19;20014;-72
2022/06/25 11:11:44;;;;;;;5.97;4.75;;;;;;;28.00;47.57;100538.13;7401542;19;20031;-72
2022/06/25 11:14:24;;;;;;;5.32;4.35;;;;;;;28.18;46.93;100540.88;7399449;19;20035;-71
2022/06/25 11:16:55;;;;;;;4.78;4.38;;;;;;;28.35;46.62;100528.41;7399287;19;20018;-71
2022/06/25 11:19:27;;;;;;;4.63;4.05;;;;;;;28.56;45.53;100528.03;7399175;19;20346;-71
2022/06/25 11:21:55;;;;;;;6.68;4.15;;;;;;;28.64;45.74;100536.22;7401378;19;20010;-71
2022/06/25 11:24:25;;;;;;;4.85;4.18;;;;;;;28.57;45.31;100540.53;7398895;19;20024;-71
2022/06/25 11:29:42;;;;;;;6.95;4.13;;;;;;;28.31;45.46;100538.66;7401057;19;20022;-71
2022/06/25 11:32:11;;;;;;;5.82;4.30;;;;;;;28.34;45.38;100541.03;7402059;19;20053;-71
2022/06/25 11:34:43;;;;;;;5.25;4.00;;;;;;;28.38;45.28;100536.16;7398101;19;20027;-70
2022/06/25 11:37:14;;;;;;;6.85;4.40;;;;;;;28.41;45.26;100536.72;7398008;19;20040;-72
2022/06/25 11:39:43;;;;;;;5.72;4.20;;;;;;;28.47;45.40;100537.94;7397745;19;20097;-71
2022/06/25 11:42:13;;;;;;;7.30;3.88;;;;;;;28.55;45.19;100537.13;7400443;19;20010;-72
2022/06/25 11:44:44;;;;;;;5.63;3.88;;;;;;;28.67;45.07;100546.72;7396994;19;20487;-69
2022/06/25 11:47:14;;;;;;;4.63;3.70;;;;;;;28.79;44.78;100535.69;7399777;19;20513;-70